sensor_id;sensor_type;location;lat;lon;timestamp;P1;durP1;ratioP1;P2;durP2;ratioP2
17985;SDS011;9118;48.122;11.546;2023-02-01T00:01:06;5.47;;;3.97;;
17985;SDS011;9118;48.122;11.546;2023-02-01T00:03:34;5.20;;;3.93;;
17985;SDS011;9118;48.122;11.546;2023-02-01T00:06:02;5.73;;;4.00;;
17985;SDS011;9118;48.122;11.546;2023-02-01T00:08:29;6.23;;;4.10;;
17985;SDS011;9118;48.122;11.546;2023-02-01T00:10:59;6.73;;;3.93;;
17985;SDS011;9118;48.122;11.546;2023-02-01T00:13:29;4.90;;;3.30;;
17985;SDS011;9118;48.122;11.546;2023-02-01T00:16:02;5.37;;;3.57;;
17985;SDS011;9118;48.122;11.546;2023-02-01T00:18:31;5.97;;;4.00;;
17985;SDS011;9118;48.122;11.546;2023-02-01T00:20:58;6.50;;;3.47;;
17985;SDS011;9118;48.122;11.546;2023-02-01T00:23:25;4.43;;;3.30;;
17985;SDS011;9118;48.122;11.546;2023-02-01T00:25:52;4.70;;;3.50;;
17985;SDS011;9118;48.122;11.546;2023-02-01T00:28:19;6.33;;;3.43;;
17985;SDS011;9118;48.122;11.546;2023-02-01T00:30:46;3.80;;;3.27;;
17985;SDS011;9118;48.122;11.546;2023-02-01T00:33:21;4.57;;;3.03;;
17985;SDS011;9118;48.122;11.546;2023-02-01T00:35:49;5.17;;;3.20;;
17985;SDS011;9118;48.122;11.546;2023-02-01T00:38:17;3.90;;;3.10;;
17985;SDS011;9118;48.122;11.546;2023-02-01T00:40:44;5.53;;;3.43;;
17985;SDS011;9118;48.122;11.546;2023-02-01T00:43:10;4.43;;;3.47;;
17985;SDS011;9118;48.122;11.546;2023-02-01T00:45:37;4.60;;;3.37;;
17985;SDS011;9118;48.122;11.546;2023-02-01T00:48:04;6.40;;;3.80;;
17985;SDS011;9118;48.122;11.546;2023-02-01T00:50:32;5.13;;;3.60;;
17985;SDS011;9118;48.122;11.546;2023-02-01T00:53:00;5.03;;;3.83;;
17985;SDS011;9118;48.122;11.546;2023-02-01T00:55:27;5.73;;;3.77;;
17985;SDS011;9118;48.122;11.546;2023-02-01T00:57:54;6.03;;;4.20;;
17985;SDS011;9118;48.122;11.546;2023-02-01T01:00:21;5.57;;;4.20;;
17985;SDS011;9118;48.122;11.546;2023-02-01T01:02:48;5.70;;;4.00;;
17985;SDS011;9118;48.122;11.546;2023-02-01T01:05:15;7.77;;;4.10;;
17985;SDS011;9118;48.122;11.546;2023-02-01T01:07:42;5.97;;;4.73;;
17985;SDS011;9118;48.122;11.546;2023-02-01T01:10:10;6.20;;;4.23;;
17985;SDS011;9118;48.122;11.546;2023-02-01T01:12:37;6.43;;;4.60;;
17985;SDS011;9118;48.122;11.546;2023-02-01T01:15:05;6.93;;;4.90;;
17985;SDS011;9118;48.122;11.546;2023-02-01T01:17:33;8.83;;;5.20;;
17985;SDS011;9118;48.122;11.546;2023-02-01T01:19:59;6.17;;;4.77;;
17985;SDS011;9118;48.122;11.546;2023-02-01T01:22:26;5.77;;;4.53;;
17985;SDS011;9118;48.122;11.546;2023-02-01T01:24:53;6.20;;;4.23;;
17985;SDS011;9118;48.122;11.546;2023-02-01T01:27:22;7.77;;;5.20;;
17985;SDS011;9118;48.122;11.546;2023-02-01T01:29:50;7.87;;;4.87;;
17985;SDS011;9118;48.122;11.546;2023-02-01T01:32:17;7.20;;;4.80;;
17985;SDS011;9118;48.122;11.546;2023-02-01T01:34:46;5.83;;;4.73;;
17985;SDS011;9118;48.122;11.546;2023-02-01T01:37:15;6.17;;;4.70;;
17985;SDS011;9118;48.122;11.546;2023-02-01T01:39:43;7.97;;;5.10;;
17985;SDS011;9118;48.122;11.546;2023-02-01T01:42:12;6.87;;;4.73;;
17985;SDS011;9118;48.122;11.546;2023-02-01T01:44:59;7.77;;;5.00;;
17985;SDS011;9118;48.122;11.546;2023-02-01T01:47:30;8.90;;;4.90;;
17985;SDS011;9118;48.122;11.546;2023-02-01T01:50:01;8.00;;;5.40;;
17985;SDS011;9118;48.122;11.546;2023-02-01T01:52:30;7.07;;;5.20;;
17985;SDS011;9118;48.122;11.546;2023-02-01T01:54:57;7.77;;;5.10;;
17985;SDS011;9118;48.122;11.546;2023-02-01T01:57:25;8.87;;;5.23;;
17985;SDS011;9118;48.122;11.546;2023-02-01T01:59:56;9.50;;;5.90;;
17985;SDS011;9118;48.122;11.546;2023-02-01T02:02:30;9.10;;;5.57;;
17985;SDS011;9118;48.122;11.546;2023-02-01T02:04:57;8.50;;;5.67;;
17985;SDS011;9118;48.122;11.546;2023-02-01T02:07:25;8.93;;;5.90;;
17985;SDS011;9118;48.122;11.546;2023-02-01T02:09:56;9.17;;;6.10;;
17985;SDS011;9118;48.122;11.546;2023-02-01T02:12:23;10.40;;;6.23;;
17985;SDS011;9118;48.122;11.546;2023-02-01T02:14:55;7.47;;;5.57;;
17985;SDS011;9118;48.122;11.546;2023-02-01T02:17:26;8.90;;;6.17;;
17985;SDS011;9118;48.122;11.546;2023-02-01T02:23:13;9.27;;;6.03;;
17985;SDS011;9118;48.122;11.546;2023-02-01T02:32:23;11.33;;;6.27;;
17985;SDS011;9118;48.122;11.546;2023-02-01T02:35:12;6.60;;;5.07;;
17985;SDS011;9118;48.122;11.546;2023-02-01T02:37:51;9.40;;;5.87;;
17985;SDS011;9118;48.122;11.546;2023-02-01T02:40:23;8.87;;;5.93;;
17985;SDS011;9118;48.122;11.546;2023-02-01T02:42:58;6.87;;;5.20;;
17985;SDS011;9118;48.122;11.546;2023-02-01T02:45:49;9.03;;;5.73;;
17985;SDS011;9118;48.122;11.546;2023-02-01T02:48:41;9.17;;;6.27;;
17985;SDS011;9118;48.122;11.546;2023-02-01T02:51:18;7.57;;;5.47;;
17985;SDS011;9118;48.122;11.546;2023-02-01T02:54:07;9.40;;;5.70;;
17985;SDS011;9118;48.122;11.546;2023-02-01T02:56:56;8.70;;;5.53;;
17985;SDS011;9118;48.122;11.546;2023-02-01T02:59:41;7.53;;;5.57;;
17985;SDS011;9118;48.122;11.546;2023-02-01T03:02:28;7.47;;;5.60;;
17985;SDS011;9118;48.122;11.546;2023-02-01T03:05:13;8.80;;;6.03;;
17985;SDS011;9118;48.122;11.546;2023-02-01T03:07:57;7.87;;;5.73;;
17985;SDS011;9118;48.122;11.546;2023-02-01T03:10:41;7.67;;;5.93;;
17985;SDS011;9118;48.122;11.546;2023-02-01T03:13:18;9.40;;;5.80;;
17985;SDS011;9118;48.122;11.546;2023-02-01T03:15:51;7.60;;;5.57;;
17985;SDS011;9118;48.122;11.546;2023-02-01T03:18:24;8.07;;;5.53;;
17985;SDS011;9118;48.122;11.546;2023-02-01T03:20:56;7.80;;;5.07;;
17985;SDS011;9118;48.122;11.546;2023-02-01T03:23:30;8.30;;;5.80;;
17985;SDS011;9118;48.122;11.546;2023-02-01T03:26:02;8.97;;;5.50;;
17985;SDS011;9118;48.122;11.546;2023-02-01T03:28:32;7.03;;;4.90;;
17985;SDS011;9118;48.122;11.546;2023-02-01T03:31:00;7.53;;;5.10;;
17985;SDS011;9118;48.122;11.546;2023-02-01T03:33:28;6.70;;;5.17;;
17985;SDS011;9118;48.122;11.546;2023-02-01T03:36:02;7.20;;;5.17;;
17985;SDS011;9118;48.122;11.546;2023-02-01T03:38:38;8.87;;;5.43;;
17985;SDS011;9118;48.122;11.546;2023-02-01T03:41:09;7.33;;;5.23;;
17985;SDS011;9118;48.122;11.546;2023-02-01T03:43:43;7.30;;;5.23;;
17985;SDS011;9118;48.122;11.546;2023-02-01T03:46:17;11.03;;;5.77;;
17985;SDS011;9118;48.122;11.546;2023-02-01T03:48:48;5.93;;;4.63;;
17985;SDS011;9118;48.122;11.546;2023-02-01T03:51:17;7.43;;;5.17;;
17985;SDS011;9118;48.122;11.546;2023-02-01T03:53:48;7.63;;;5.60;;
17985;SDS011;9118;48.122;11.546;2023-02-01T03:56:15;5.83;;;4.57;;
17985;SDS011;9118;48.122;11.546;2023-02-01T03:58:44;5.30;;;4.70;;
17985;SDS011;9118;48.122;11.546;2023-02-01T04:01:24;7.80;;;4.80;;
17985;SDS011;9118;48.122;11.546;2023-02-01T04:03:52;7.50;;;5.13;;
17985;SDS011;9118;48.122;11.546;2023-02-01T04:06:19;7.40;;;4.90;;
17985;SDS011;9118;48.122;11.546;2023-02-01T04:08:47;8.57;;;5.13;;
17985;SDS011;9118;48.122;11.546;2023-02-01T04:11:14;7.37;;;4.53;;
17985;SDS011;9118;48.122;11.546;2023-02-01T04:13:41;7.90;;;4.93;;
17985;SDS011;9118;48.122;11.546;2023-02-01T04:16:09;5.70;;;4.43;;
17985;SDS011;9118;48.122;11.546;2023-02-01T04:18:36;7.37;;;4.70;;
17985;SDS011;9118;48.122;11.546;2023-02-01T04:21:03;6.90;;;5.03;;
17985;SDS011;9118;48.122;11.546;2023-02-01T04:23:30;8.30;;;5.13;;
17985;SDS011;9118;48.122;11.546;2023-02-01T04:26:03;6.90;;;4.87;;
17985;SDS011;9118;48.122;11.546;2023-02-01T04:28:31;7.40;;;5.13;;
17985;SDS011;9118;48.122;11.546;2023-02-01T04:30:58;5.53;;;4.67;;
17985;SDS011;9118;48.122;11.546;2023-02-01T04:33:25;8.30;;;5.30;;
17985;SDS011;9118;48.122;11.546;2023-02-01T04:35:52;7.77;;;5.47;;
17985;SDS011;9118;48.122;11.546;2023-02-01T04:38:19;7.30;;;5.30;;
17985;SDS011;9118;48.122;11.546;2023-02-01T04:40:46;5.93;;;4.63;;
17985;SDS011;9118;48.122;11.546;2023-02-01T04:43:15;8.83;;;5.43;;
17985;SDS011;9118;48.122;11.546;2023-02-01T04:45:46;7.57;;;5.10;;
17985;SDS011;9118;48.122;11.546;2023-02-01T04:48:14;6.03;;;4.67;;
17985;SDS011;9118;48.122;11.546;2023-02-01T04:50:42;7.00;;;5.20;;
17985;SDS011;9118;48.122;11.546;2023-02-01T04:53:10;8.93;;;5.27;;
17985;SDS011;9118;48.122;11.546;2023-02-01T04:55:37;6.90;;;4.97;;
17985;SDS011;9118;48.122;11.546;2023-02-01T04:58:04;5.73;;;4.53;;
17985;SDS011;9118;48.122;11.546;2023-02-01T05:00:32;6.73;;;5.20;;
17985;SDS011;9118;48.122;11.546;2023-02-01T05:02:59;8.93;;;5.27;;
17985;SDS011;9118;48.122;11.546;2023-02-01T05:05:26;6.60;;;5.03;;
17985;SDS011;9118;48.122;11.546;2023-02-01T05:07:54;7.80;;;5.70;;
17985;SDS011;9118;48.122;11.546;2023-02-01T05:10:21;6.00;;;4.60;;
17985;SDS011;9118;48.122;11.546;2023-02-01T05:12:48;6.70;;;4.87;;
17985;SDS011;9118;48.122;11.546;2023-02-01T05:15:34;8.07;;;5.30;;
17985;SDS011;9118;48.122;11.546;2023-02-01T05:18:01;8.47;;;5.87;;
17985;SDS011;9118;48.122;11.546;2023-02-01T05:20:28;7.47;;;5.67;;
17985;SDS011;9118;48.122;11.546;2023-02-01T05:22:55;8.30;;;4.30;;
17985;SDS011;9118;48.122;11.546;2023-02-01T05:25:21;10.57;;;5.90;;
17985;SDS011;9118;48.122;11.546;2023-02-01T05:27:48;7.53;;;5.33;;
17985;SDS011;9118;48.122;11.546;2023-02-01T05:30:15;7.37;;;5.50;;
17985;SDS011;9118;48.122;11.546;2023-02-01T05:32:44;7.87;;;5.90;;
17985;SDS011;9118;48.122;11.546;2023-02-01T05:35:11;8.97;;;6.03;;
17985;SDS011;9118;48.122;11.546;2023-02-01T05:37:38;8.13;;;5.60;;
17985;SDS011;9118;48.122;11.546;2023-02-01T05:40:05;8.57;;;5.77;;
17985;SDS011;9118;48.122;11.546;2023-02-01T05:42:33;7.60;;;5.63;;
17985;SDS011;9118;48.122;11.546;2023-02-01T05:45:00;7.80;;;6.00;;
17985;SDS011;9118;48.122;11.546;2023-02-01T05:47:27;8.43;;;5.80;;
17985;SDS011;9118;48.122;11.546;2023-02-01T05:49:55;8.23;;;6.10;;
17985;SDS011;9118;48.122;11.546;2023-02-01T05:52:22;9.97;;;6.17;;
17985;SDS011;9118;48.122;11.546;2023-02-01T05:54:49;9.00;;;6.00;;
17985;SDS011;9118;48.122;11.546;2023-02-01T05:57:17;7.47;;;5.83;;
17985;SDS011;9118;48.122;11.546;2023-02-01T05:59:44;8.57;;;5.60;;
17985;SDS011;9118;48.122;11.546;2023-02-01T06:02:12;7.77;;;5.27;;
17985;SDS011;9118;48.122;11.546;2023-02-01T06:04:39;9.40;;;5.97;;
17985;SDS011;9118;48.122;11.546;2023-02-01T06:07:08;8.33;;;5.73;;
17985;SDS011;9118;48.122;11.546;2023-02-01T06:09:35;8.03;;;5.13;;
17985;SDS011;9118;48.122;11.546;2023-02-01T06:12:03;9.87;;;5.63;;
17985;SDS011;9118;48.122;11.546;2023-02-01T06:14:30;10.20;;;5.67;;
17985;SDS011;9118;48.122;11.546;2023-02-01T06:16:57;7.13;;;5.57;;
17985;SDS011;9118;48.122;11.546;2023-02-01T06:19:24;8.17;;;5.50;;
17985;SDS011;9118;48.122;11.546;2023-02-01T06:21:51;8.67;;;5.80;;
17985;SDS011;9118;48.122;11.546;2023-02-01T06:24:20;8.20;;;5.97;;
17985;SDS011;9118;48.122;11.546;2023-02-01T06:26:47;6.37;;;5.13;;
17985;SDS011;9118;48.122;11.546;2023-02-01T06:29:15;9.70;;;5.57;;
17985;SDS011;9118;48.122;11.546;2023-02-01T06:31:42;9.00;;;6.20;;
17985;SDS011;9118;48.122;11.546;2023-02-01T06:34:09;8.43;;;5.73;;
17985;SDS011;9118;48.122;11.546;2023-02-01T06:36:36;8.13;;;5.50;;
17985;SDS011;9118;48.122;11.546;2023-02-01T06:39:03;8.27;;;5.63;;
17985;SDS011;9118;48.122;11.546;2023-02-01T06:41:31;8.17;;;5.70;;
17985;SDS011;9118;48.122;11.546;2023-02-01T06:43:59;8.10;;;5.30;;
17985;SDS011;9118;48.122;11.546;2023-02-01T06:46:29;7.57;;;5.40;;
17985;SDS011;9118;48.122;11.546;2023-02-01T06:48:56;7.80;;;5.40;;
17985;SDS011;9118;48.122;11.546;2023-02-01T06:51:24;7.10;;;4.97;;
17985;SDS011;9118;48.122;11.546;2023-02-01T06:53:53;7.57;;;5.10;;
17985;SDS011;9118;48.122;11.546;2023-02-01T06:56:20;7.17;;;5.40;;
17985;SDS011;9118;48.122;11.546;2023-02-01T06:58:49;7.73;;;5.57;;
17985;SDS011;9118;48.122;11.546;2023-02-01T07:01:16;8.77;;;5.57;;
17985;SDS011;9118;48.122;11.546;2023-02-01T07:03:46;6.03;;;4.73;;
17985;SDS011;9118;48.122;11.546;2023-02-01T07:06:14;10.00;;;5.70;;
17985;SDS011;9118;48.122;11.546;2023-02-01T07:08:41;7.87;;;5.73;;
17985;SDS011;9118;48.122;11.546;2023-02-01T07:11:09;6.43;;;4.83;;
17985;SDS011;9118;48.122;11.546;2023-02-01T07:13:38;7.20;;;4.93;;
17985;SDS011;9118;48.122;11.546;2023-02-01T07:16:08;7.77;;;5.00;;
17985;SDS011;9118;48.122;11.546;2023-02-01T07:18:37;7.17;;;5.03;;
17985;SDS011;9118;48.122;11.546;2023-02-01T07:21:04;6.70;;;4.90;;
17985;SDS011;9118;48.122;11.546;2023-02-01T07:23:31;6.87;;;4.83;;
17985;SDS011;9118;48.122;11.546;2023-02-01T07:25:59;6.40;;;4.50;;
17985;SDS011;9118;48.122;11.546;2023-02-01T07:28:28;7.03;;;4.93;;
17985;SDS011;9118;48.122;11.546;2023-02-01T07:31:01;7.57;;;4.77;;
17985;SDS011;9118;48.122;11.546;2023-02-01T07:33:30;6.03;;;4.50;;
17985;SDS011;9118;48.122;11.546;2023-02-01T07:35:57;6.50;;;4.33;;
17985;SDS011;9118;48.122;11.546;2023-02-01T07:38:26;6.93;;;4.43;;
17985;SDS011;9118;48.122;11.546;2023-02-01T07:40:56;5.87;;;4.23;;
17985;SDS011;9118;48.122;11.546;2023-02-01T07:43:23;4.73;;;3.93;;
17985;SDS011;9118;48.122;11.546;2023-02-01T07:45:50;6.37;;;4.00;;
17985;SDS011;9118;48.122;11.546;2023-02-01T07:48:18;5.17;;;3.63;;
17985;SDS011;9118;48.122;11.546;2023-02-01T07:50:46;6.83;;;3.80;;
17985;SDS011;9118;48.122;11.546;2023-02-01T07:53:14;6.00;;;3.83;;
17985;SDS011;9118;48.122;11.546;2023-02-01T07:55:41;4.77;;;3.53;;
17985;SDS011;9118;48.122;11.546;2023-02-01T07:58:08;5.27;;;4.10;;
17985;SDS011;9118;48.122;11.546;2023-02-01T08:00:35;6.70;;;4.00;;
17985;SDS011;9118;48.122;11.546;2023-02-01T08:03:19;3.83;;;3.17;;
17985;SDS011;9118;48.122;11.546;2023-02-01T08:05:47;5.30;;;3.30;;
17985;SDS011;9118;48.122;11.546;2023-02-01T08:08:14;3.90;;;3.13;;
17985;SDS011;9118;48.122;11.546;2023-02-01T08:10:41;4.23;;;3.27;;
17985;SDS011;9118;48.122;11.546;2023-02-01T08:13:08;3.73;;;3.33;;
17985;SDS011;9118;48.122;11.546;2023-02-01T08:15:35;6.20;;;3.50;;
17985;SDS011;9118;48.122;11.546;2023-02-01T08:18:04;4.93;;;3.37;;
17985;SDS011;9118;48.122;11.546;2023-02-01T08:20:31;4.53;;;3.60;;
17985;SDS011;9118;48.122;11.546;2023-02-01T08:23:02;4.60;;;3.60;;
17985;SDS011;9118;48.122;11.546;2023-02-01T08:25:29;4.47;;;3.50;;
17985;SDS011;9118;48.122;11.546;2023-02-01T08:27:56;4.43;;;3.50;;
17985;SDS011;9118;48.122;11.546;2023-02-01T08:30:23;4.30;;;3.27;;
17985;SDS011;9118;48.122;11.546;2023-02-01T08:32:52;5.63;;;4.00;;
17985;SDS011;9118;48.122;11.546;2023-02-01T08:35:19;5.53;;;3.60;;
17985;SDS011;9118;48.122;11.546;2023-02-01T08:37:46;4.50;;;3.40;;
17985;SDS011;9118;48.122;11.546;2023-02-01T08:40:15;6.10;;;3.40;;
17985;SDS011;9118;48.122;11.546;2023-02-01T08:42:42;3.93;;;3.17;;
17985;SDS011;9118;48.122;11.546;2023-02-01T08:45:18;3.37;;;2.83;;
17985;SDS011;9118;48.122;11.546;2023-02-01T08:47:46;5.23;;;3.40;;
17985;SDS011;9118;48.122;11.546;2023-02-01T08:50:13;3.90;;;3.20;;
17985;SDS011;9118;48.122;11.546;2023-02-01T08:52:41;5.10;;;3.50;;
17985;SDS011;9118;48.122;11.546;2023-02-01T08:55:08;5.27;;;4.23;;
17985;SDS011;9118;48.122;11.546;2023-02-01T08:57:37;4.63;;;3.47;;
17985;SDS011;9118;48.122;11.546;2023-02-01T09:00:05;4.77;;;3.47;;
17985;SDS011;9118;48.122;11.546;2023-02-01T09:02:35;5.43;;;3.90;;
17985;SDS011;9118;48.122;11.546;2023-02-01T09:05:01;6.03;;;3.60;;
17985;SDS011;9118;48.122;11.546;2023-02-01T09:07:29;4.33;;;3.57;;
17985;SDS011;9118;48.122;11.546;2023-02-01T09:09:56;6.03;;;4.10;;
17985;SDS011;9118;48.122;11.546;2023-02-01T09:12:26;5.97;;;3.93;;
17985;SDS011;9118;48.122;11.546;2023-02-01T09:14:54;6.47;;;3.50;;
17985;SDS011;9118;48.122;11.546;2023-02-01T09:17:21;4.97;;;3.97;;
17985;SDS011;9118;48.122;11.546;2023-02-01T09:19:48;4.30;;;3.40;;
17985;SDS011;9118;48.122;11.546;2023-02-01T09:22:15;4.43;;;3.70;;
17985;SDS011;9118;48.122;11.546;2023-02-01T09:24:42;4.33;;;3.40;;
17985;SDS011;9118;48.122;11.546;2023-02-01T09:27:12;4.00;;;3.23;;
17985;SDS011;9118;48.122;11.546;2023-02-01T09:29:39;5.73;;;3.33;;
17985;SDS011;9118;48.122;11.546;2023-02-01T09:32:07;4.53;;;3.43;;
17985;SDS011;9118;48.122;11.546;2023-02-01T09:34:34;5.67;;;3.40;;
17985;SDS011;9118;48.122;11.546;2023-02-01T09:37:01;5.43;;;3.30;;
17985;SDS011;9118;48.122;11.546;2023-02-01T09:39:28;6.73;;;3.70;;
17985;SDS011;9118;48.122;11.546;2023-02-01T09:41:58;5.60;;;3.30;;
17985;SDS011;9118;48.122;11.546;2023-02-01T09:44:37;6.07;;;3.40;;
17985;SDS011;9118;48.122;11.546;2023-02-01T09:47:16;3.83;;;2.97;;
17985;SDS011;9118;48.122;11.546;2023-02-01T09:49:48;3.20;;;2.70;;
17985;SDS011;9118;48.122;11.546;2023-02-01T09:52:23;4.57;;;3.23;;
17985;SDS011;9118;48.122;11.546;2023-02-01T09:54:55;4.57;;;3.60;;
17985;SDS011;9118;48.122;11.546;2023-02-01T09:57:28;6.23;;;3.70;;
17985;SDS011;9118;48.122;11.546;2023-02-01T09:59:59;7.03;;;3.53;;
17985;SDS011;9118;48.122;11.546;2023-02-01T10:02:32;4.80;;;3.00;;
17985;SDS011;9118;48.122;11.546;2023-02-01T10:05:03;4.57;;;3.50;;
17985;SDS011;9118;48.122;11.546;2023-02-01T10:07:32;5.30;;;3.40;;
17985;SDS011;9118;48.122;11.546;2023-02-01T10:10:05;4.50;;;3.53;;
17985;SDS011;9118;48.122;11.546;2023-02-01T10:12:54;6.50;;;3.60;;
17985;SDS011;9118;48.122;11.546;2023-02-01T10:15:55;2.87;;;2.60;;
17985;SDS011;9118;48.122;11.546;2023-02-01T10:18:40;4.53;;;3.60;;
17985;SDS011;9118;48.122;11.546;2023-02-01T10:21:18;4.47;;;3.73;;
17985;SDS011;9118;48.122;11.546;2023-02-01T10:26:50;4.27;;;3.70;;
17985;SDS011;9118;48.122;11.546;2023-02-01T10:29:22;5.00;;;3.43;;
17985;SDS011;9118;48.122;11.546;2023-02-01T10:31:53;6.50;;;3.27;;
17985;SDS011;9118;48.122;11.546;2023-02-01T10:34:24;7.07;;;3.60;;
17985;SDS011;9118;48.122;11.546;2023-02-01T10:36:53;5.67;;;3.53;;
17985;SDS011;9118;48.122;11.546;2023-02-01T10:39:23;6.67;;;3.57;;
17985;SDS011;9118;48.122;11.546;2023-02-01T10:41:50;8.90;;;3.67;;
17985;SDS011;9118;48.122;11.546;2023-02-01T10:44:19;5.47;;;3.40;;
17985;SDS011;9118;48.122;11.546;2023-02-01T10:46:50;4.70;;;3.20;;
17985;SDS011;9118;48.122;11.546;2023-02-01T10:49:18;4.57;;;3.20;;
17985;SDS011;9118;48.122;11.546;2023-02-01T10:51:51;6.50;;;4.30;;
17985;SDS011;9118;48.122;11.546;2023-02-01T10:54:32;5.37;;;3.50;;
17985;SDS011;9118;48.122;11.546;2023-02-01T10:57:00;4.60;;;3.60;;
17985;SDS011;9118;48.122;11.546;2023-02-01T10:59:28;9.17;;;3.73;;
17985;SDS011;9118;48.122;11.546;2023-02-01T11:01:58;4.93;;;3.63;;
17985;SDS011;9118;48.122;11.546;2023-02-01T11:04:36;6.37;;;4.40;;
17985;SDS011;9118;48.122;11.546;2023-02-01T11:07:07;4.30;;;3.60;;
17985;SDS011;9118;48.122;11.546;2023-02-01T11:09:41;6.27;;;4.10;;
17985;SDS011;9118;48.122;11.546;2023-02-01T11:12:27;9.40;;;4.33;;
17985;SDS011;9118;48.122;11.546;2023-02-01T11:15:01;9.00;;;3.97;;
17985;SDS011;9118;48.122;11.546;2023-02-01T11:17:39;4.93;;;3.93;;
17985;SDS011;9118;48.122;11.546;2023-02-01T11:20:12;4.83;;;3.83;;
17985;SDS011;9118;48.122;11.546;2023-02-01T11:22:46;7.67;;;4.30;;
17985;SDS011;9118;48.122;11.546;2023-02-01T11:25:14;8.37;;;4.50;;
17985;SDS011;9118;48.122;11.546;2023-02-01T11:27:43;5.60;;;4.20;;
17985;SDS011;9118;48.122;11.546;2023-02-01T11:30:14;6.87;;;4.20;;
17985;SDS011;9118;48.122;11.546;2023-02-01T11:32:44;8.63;;;4.23;;
17985;SDS011;9118;48.122;11.546;2023-02-01T11:35:13;3.67;;;2.93;;
17985;SDS011;9118;48.122;11.546;2023-02-01T11:37:48;5.63;;;3.93;;
17985;SDS011;9118;48.122;11.546;2023-02-01T11:40:23;4.53;;;3.30;;
17985;SDS011;9118;48.122;11.546;2023-02-01T11:42:54;5.70;;;3.67;;
17985;SDS011;9118;48.122;11.546;2023-02-01T11:45:25;6.30;;;3.60;;
17985;SDS011;9118;48.122;11.546;2023-02-01T11:47:53;5.23;;;4.03;;
17985;SDS011;9118;48.122;11.546;2023-02-01T11:50:24;8.43;;;3.90;;
17985;SDS011;9118;48.122;11.546;2023-02-01T11:55:55;5.20;;;3.90;;
17985;SDS011;9118;48.122;11.546;2023-02-01T11:58:30;6.27;;;4.23;;
17985;SDS011;9118;48.122;11.546;2023-02-01T12:01:20;7.27;;;4.50;;
17985;SDS011;9118;48.122;11.546;2023-02-01T12:04:00;5.70;;;4.10;;
17985;SDS011;9118;48.122;11.546;2023-02-01T12:06:43;7.10;;;4.80;;
17985;SDS011;9118;48.122;11.546;2023-02-01T12:09:30;6.30;;;4.33;;
17985;SDS011;9118;48.122;11.546;2023-02-01T12:12:16;5.37;;;3.97;;
17985;SDS011;9118;48.122;11.546;2023-02-01T12:14:52;12.57;;;4.60;;
17985;SDS011;9118;48.122;11.546;2023-02-01T12:17:40;7.83;;;4.27;;
17985;SDS011;9118;48.122;11.546;2023-02-01T12:20:18;10.00;;;4.90;;
17985;SDS011;9118;48.122;11.546;2023-02-01T12:22:55;8.57;;;4.13;;
17985;SDS011;9118;48.122;11.546;2023-02-01T12:25:43;8.00;;;4.23;;
17985;SDS011;9118;48.122;11.546;2023-02-01T12:28:31;7.53;;;4.57;;
17985;SDS011;9118;48.122;11.546;2023-02-01T12:31:09;11.33;;;4.17;;
17985;SDS011;9118;48.122;11.546;2023-02-01T12:33:41;6.30;;;4.37;;
17985;SDS011;9118;48.122;11.546;2023-02-01T12:36:19;10.27;;;4.63;;
17985;SDS011;9118;48.122;11.546;2023-02-01T12:38:59;6.23;;;4.00;;
17985;SDS011;9118;48.122;11.546;2023-02-01T12:41:41;7.77;;;4.40;;
17985;SDS011;9118;48.122;11.546;2023-02-01T12:44:17;6.73;;;4.10;;
17985;SDS011;9118;48.122;11.546;2023-02-01T12:46:54;6.67;;;4.00;;
17985;SDS011;9118;48.122;11.546;2023-02-01T12:49:27;6.77;;;4.10;;
17985;SDS011;9118;48.122;11.546;2023-02-01T12:52:02;6.63;;;3.93;;
17985;SDS011;9118;48.122;11.546;2023-02-01T12:54:34;6.00;;;3.97;;
17985;SDS011;9118;48.122;11.546;2023-02-01T12:57:10;6.33;;;3.70;;
17985;SDS011;9118;48.122;11.546;2023-02-01T12:59:40;8.43;;;4.00;;
17985;SDS011;9118;48.122;11.546;2023-02-01T13:02:12;7.00;;;3.90;;
17985;SDS011;9118;48.122;11.546;2023-02-01T13:04:49;4.83;;;3.07;;
17985;SDS011;9118;48.122;11.546;2023-02-01T13:07:24;2.97;;;2.37;;
17985;SDS011;9118;48.122;11.546;2023-02-01T13:09:55;3.20;;;2.63;;
17985;SDS011;9118;48.122;11.546;2023-02-01T13:12:30;4.57;;;3.37;;
17985;SDS011;9118;48.122;11.546;2023-02-01T13:15:03;7.40;;;3.50;;
17985;SDS011;9118;48.122;11.546;2023-02-01T13:17:37;6.67;;;4.03;;
17985;SDS011;9118;48.122;11.546;2023-02-01T13:20:06;5.70;;;3.60;;
17985;SDS011;9118;48.122;11.546;2023-02-01T13:22:43;5.97;;;4.10;;
17985;SDS011;9118;48.122;11.546;2023-02-01T13:25:15;4.33;;;3.90;;
17985;SDS011;9118;48.122;11.546;2023-02-01T13:27:51;4.80;;;3.80;;
17985;SDS011;9118;48.122;11.546;2023-02-01T13:30:22;6.90;;;3.80;;
17985;SDS011;9118;48.122;11.546;2023-02-01T13:33:07;7.70;;;3.90;;
17985;SDS011;9118;48.122;11.546;2023-02-01T13:41:54;5.60;;;4.10;;
17985;SDS011;9118;48.122;11.546;2023-02-01T13:44:25;7.43;;;4.10;;
17985;SDS011;9118;48.122;11.546;2023-02-01T13:46:58;7.73;;;4.40;;
17985;SDS011;9118;48.122;11.546;2023-02-01T13:49:28;8.07;;;4.27;;
17985;SDS011;9118;48.122;11.546;2023-02-01T13:51:58;7.77;;;4.27;;
17985;SDS011;9118;48.122;11.546;2023-02-01T13:54:30;5.63;;;3.57;;
17985;SDS011;9118;48.122;11.546;2023-02-01T13:56:58;5.60;;;3.73;;
17985;SDS011;9118;48.122;11.546;2023-02-01T13:59:45;5.70;;;4.00;;
17985;SDS011;9118;48.122;11.546;2023-02-01T14:05:57;4.33;;;3.87;;
17985;SDS011;9118;48.122;11.546;2023-02-01T14:08:46;4.73;;;3.43;;
17985;SDS011;9118;48.122;11.546;2023-02-01T14:11:43;7.23;;;3.97;;
17985;SDS011;9118;48.122;11.546;2023-02-01T14:20:36;4.03;;;3.40;;
17985;SDS011;9118;48.122;11.546;2023-02-01T14:23:11;7.07;;;3.87;;
17985;SDS011;9118;48.122;11.546;2023-02-01T14:25:41;4.20;;;3.20;;
17985;SDS011;9118;48.122;11.546;2023-02-01T14:28:16;6.00;;;3.30;;
17985;SDS011;9118;48.122;11.546;2023-02-01T14:30:52;5.77;;;3.37;;
17985;SDS011;9118;48.122;11.546;2023-02-01T14:33:21;6.40;;;3.50;;
17985;SDS011;9118;48.122;11.546;2023-02-01T14:35:55;5.60;;;3.70;;
17985;SDS011;9118;48.122;11.546;2023-02-01T14:38:36;5.07;;;3.30;;
17985;SDS011;9118;48.122;11.546;2023-02-01T14:41:18;4.20;;;2.67;;
17985;SDS011;9118;48.122;11.546;2023-02-01T14:47:09;4.20;;;3.13;;
17985;SDS011;9118;48.122;11.546;2023-02-01T14:49:59;5.10;;;3.13;;
17985;SDS011;9118;48.122;11.546;2023-02-01T14:52:41;6.50;;;3.50;;
17985;SDS011;9118;48.122;11.546;2023-02-01T14:55:13;5.70;;;2.80;;
17985;SDS011;9118;48.122;11.546;2023-02-01T14:57:43;5.60;;;3.63;;
17985;SDS011;9118;48.122;11.546;2023-02-01T15:00:17;7.43;;;3.70;;
17985;SDS011;9118;48.122;11.546;2023-02-01T15:02:49;3.70;;;3.10;;
17985;SDS011;9118;48.122;11.546;2023-02-01T15:05:27;3.47;;;3.10;;
17985;SDS011;9118;48.122;11.546;2023-02-01T15:07:58;6.37;;;3.33;;
17985;SDS011;9118;48.122;11.546;2023-02-01T15:10:32;5.10;;;3.47;;
17985;SDS011;9118;48.122;11.546;2023-02-01T15:13:07;5.23;;;3.23;;
17985;SDS011;9118;48.122;11.546;2023-02-01T15:15:44;6.77;;;3.37;;
17985;SDS011;9118;48.122;11.546;2023-02-01T15:18:26;4.73;;;3.33;;
17985;SDS011;9118;48.122;11.546;2023-02-01T15:20:56;5.27;;;3.17;;
17985;SDS011;9118;48.122;11.546;2023-02-01T15:23:23;5.47;;;3.37;;
17985;SDS011;9118;48.122;11.546;2023-02-01T15:25:53;5.10;;;3.27;;
17985;SDS011;9118;48.122;11.546;2023-02-01T15:28:21;5.60;;;3.40;;
17985;SDS011;9118;48.122;11.546;2023-02-01T15:30:52;5.67;;;3.27;;
17985;SDS011;9118;48.122;11.546;2023-02-01T15:33:23;4.30;;;3.03;;
17985;SDS011;9118;48.122;11.546;2023-02-01T15:35:53;5.27;;;3.10;;
17985;SDS011;9118;48.122;11.546;2023-02-01T15:38:25;5.63;;;3.13;;
17985;SDS011;9118;48.122;11.546;2023-02-01T15:40:59;6.47;;;2.63;;
17985;SDS011;9118;48.122;11.546;2023-02-01T15:43:30;8.07;;;3.37;;
17985;SDS011;9118;48.122;11.546;2023-02-01T15:45:59;5.57;;;3.37;;
17985;SDS011;9118;48.122;11.546;2023-02-01T15:48:30;4.50;;;3.27;;